createdAt,value
2019-03-17T00:01:12.866Z,72.76
2019-03-17T00:03:39.824Z,72.50
2019-03-17T00:06:07.909Z,72.43
2019-03-17T00:08:35.014Z,72.47
2019-03-17T00:11:02.376Z,72.34
2019-03-17T00:13:29.342Z,71.72
2019-03-17T00:15:56.384Z,71.69
2019-03-17T00:18:23.423Z,72.58
2019-03-17T00:20:50.223Z,72.48
2019-03-17T00:23:17.164Z,73.04
2019-03-17T00:25:45.978Z,72.87
2019-03-17T00:28:12.810Z,72.91
2019-03-17T00:30:39.758Z,73.05
2019-03-17T00:33:06.643Z,72.25
2019-03-17T00:35:33.436Z,71.83
2019-03-17T00:38:00.656Z,71.51
2019-03-17T00:40:28.078Z,71.44
2019-03-17T00:42:55.334Z,71.74
2019-03-17T00:45:22.453Z,71.88
2019-03-17T00:47:49.559Z,71.63
2019-03-17T00:50:16.550Z,71.75
2019-03-17T00:52:43.898Z,71.61
2019-03-17T00:55:10.998Z,71.11
2019-03-17T00:57:37.762Z,70.71
2019-03-17T01:00:12.469Z,70.24
2019-03-17T01:02:40.007Z,70.21
2019-03-17T01:05:07.733Z,69.92
2019-03-17T01:07:34.959Z,70.16
2019-03-17T01:10:02.593Z,69.96
2019-03-17T01:12:29.866Z,69.62
2019-03-17T01:14:56.943Z,69.60
2019-03-17T01:17:23.704Z,69.91
2019-03-17T01:19:50.467Z,70.04
2019-03-17T01:22:17.662Z,69.85
2019-03-17T01:24:44.604Z,69.64
2019-03-17T01:27:11.757Z,69.78
2019-03-17T01:29:38.525Z,71.00
2019-03-17T01:32:05.343Z,70.99
2019-03-17T01:34:32.123Z,70.62
2019-03-17T01:36:58.936Z,70.41
2019-03-17T01:39:26.020Z,70.35
2019-03-17T01:41:52.867Z,70.99
2019-03-17T01:44:19.733Z,71.55
2019-03-17T01:46:46.552Z,71.39
2019-03-17T01:49:13.330Z,70.88
2019-03-17T01:51:42.514Z,70.87
2019-03-17T01:54:09.478Z,71.33
2019-03-17T01:56:36.766Z,71.32
2019-03-17T01:59:03.661Z,70.78
2019-03-17T02:01:30.474Z,70.84
2019-03-17T02:03:57.256Z,71.16
2019-03-17T02:06:24.143Z,70.76
2019-03-17T02:08:50.926Z,70.33
2019-03-17T02:11:17.827Z,70.37
2019-03-17T02:13:44.986Z,70.74
2019-03-17T02:16:11.788Z,70.74
2019-03-17T02:18:38.624Z,70.96
2019-03-17T02:21:05.552Z,70.93
2019-03-17T02:23:32.530Z,71.66
2019-03-17T02:25:59.702Z,71.80
2019-03-17T02:28:26.731Z,72.03
2019-03-17T02:30:53.611Z,71.90
2019-03-17T02:33:20.659Z,71.57
2019-03-17T02:35:47.447Z,71.24
2019-03-17T02:38:14.445Z,70.77
2019-03-17T02:40:41.343Z,70.20
2019-03-17T02:43:08.694Z,69.71
2019-03-17T02:45:35.477Z,68.87
2019-03-17T02:48:02.487Z,68.35
2019-03-17T02:50:31.774Z,68.09
2019-03-17T02:52:58.637Z,68.16
2019-03-17T02:55:25.838Z,68.36
2019-03-17T02:57:52.592Z,68.55
2019-03-17T03:00:19.536Z,68.32
2019-03-17T03:02:46.423Z,68.15
2019-03-17T03:05:13.256Z,67.93
2019-03-17T03:07:42.121Z,67.66
2019-03-17T03:10:09.966Z,67.85
2019-03-17T03:12:37.100Z,68.09
2019-03-17T03:15:07.443Z,68.22
2019-03-17T03:17:34.185Z,68.15
2019-03-17T03:20:01.209Z,68.14
2019-03-17T03:22:28.483Z,68.15
2019-03-17T03:24:55.255Z,67.48
2019-03-17T03:27:25.427Z,67.25
2019-03-17T03:29:52.719Z,67.42
2019-03-17T03:32:19.601Z,67.53
2019-03-17T03:34:46.911Z,67.92
2019-03-17T03:37:14.180Z,68.01
2019-03-17T03:39:41.165Z,68.03
2019-03-17T03:42:08.025Z,68.04
2019-03-17T03:44:34.907Z,68.38
2019-03-17T03:47:01.928Z,68.17
2019-03-17T03:49:29.051Z,68.16
2019-03-17T03:51:56.702Z,68.06
2019-03-17T03:54:23.832Z,68.63
2019-03-17T03:56:52.142Z,68.51
2019-03-17T03:59:19.096Z,68.57
2019-03-17T04:01:46.376Z,68.30
2019-03-17T04:04:13.710Z,68.27
2019-03-17T04:06:41.100Z,69.03
2019-03-17T04:09:07.987Z,69.01
2019-03-17T04:11:34.726Z,68.81
2019-03-17T04:14:03.726Z,68.71
2019-03-17T04:16:30.477Z,68.62
2019-03-17T04:18:58.039Z,68.67
2019-03-17T04:21:25.528Z,68.72
2019-03-17T04:23:52.463Z,68.95
2019-03-17T04:26:19.420Z,68.90
2019-03-17T04:28:46.976Z,68.33
2019-03-17T04:31:14.843Z,68.37
2019-03-17T04:33:42.211Z,68.95
2019-03-17T04:36:09.003Z,69.34
2019-03-17T04:38:36.087Z,69.65
2019-03-17T04:41:03.003Z,69.29
2019-03-17T04:43:29.998Z,68.81
2019-03-17T04:45:56.908Z,69.54
2019-03-17T04:48:24.412Z,69.60
2019-03-17T04:50:51.258Z,69.51
2019-03-17T04:53:18.019Z,69.25
2019-03-17T04:55:44.818Z,69.48
2019-03-17T04:58:11.630Z,69.94
2019-03-17T05:00:38.528Z,69.80
2019-03-17T05:03:05.283Z,69.77
2019-03-17T05:05:32.056Z,70.12
2019-03-17T05:07:58.937Z,70.43
2019-03-17T05:10:26.260Z,70.26
2019-03-17T05:12:53.198Z,70.62
2019-03-17T05:15:19.976Z,70.60
2019-03-17T05:17:47.118Z,70.45
2019-03-17T05:20:13.985Z,70.49
2019-03-17T05:22:40.859Z,70.69
2019-03-17T05:25:08.214Z,70.52
2019-03-17T05:27:34.978Z,70.44
2019-03-17T05:30:04.943Z,70.20
2019-03-17T05:32:31.719Z,69.82
2019-03-17T05:34:58.965Z,69.59
2019-03-17T05:37:26.024Z,69.78
2019-03-17T05:39:53.619Z,70.15
2019-03-17T05:42:20.399Z,69.91
2019-03-17T05:44:47.380Z,69.91
2019-03-17T05:47:14.146Z,69.64
2019-03-17T05:49:40.894Z,69.44
2019-03-17T05:52:07.741Z,69.59
2019-03-17T05:54:34.490Z,69.49
2019-03-17T05:57:02.253Z,69.52
2019-03-17T05:59:29.367Z,70.08
2019-03-17T06:01:56.938Z,70.27
2019-03-17T06:04:24.407Z,70.30
2019-03-17T06:06:51.230Z,70.26
2019-03-17T06:09:18.115Z,70.32
2019-03-17T06:11:44.979Z,70.16
2019-03-17T06:14:12.188Z,69.32
2019-03-17T06:16:39.124Z,68.88
2019-03-17T06:19:05.978Z,68.48
2019-03-17T06:21:32.864Z,68.58
2019-03-17T06:23:59.809Z,68.63
2019-03-17T06:26:26.800Z,68.96
2019-03-17T06:28:53.651Z,68.86
2019-03-17T06:31:20.433Z,69.03
2019-03-17T06:33:47.343Z,68.66
2019-03-17T06:36:14.283Z,68.57
2019-03-17T06:38:41.377Z,68.78
2019-03-17T06:41:08.650Z,68.69
2019-03-17T06:43:35.645Z,68.75
2019-03-17T06:46:02.482Z,68.37
2019-03-17T06:48:29.493Z,68.14
2019-03-17T06:50:56.434Z,67.79
2019-03-17T06:53:23.406Z,67.07
2019-03-17T06:55:50.285Z,66.61
2019-03-17T06:58:17.111Z,66.59
2019-03-17T07:00:44.471Z,66.88
2019-03-17T07:03:11.425Z,66.99
2019-03-17T07:05:38.936Z,66.80
2019-03-17T07:08:07.276Z,66.55
2019-03-17T07:10:34.273Z,66.59
2019-03-17T07:13:01.345Z,66.87
2019-03-17T07:15:28.398Z,66.71
2019-03-17T07:17:55.234Z,66.30
2019-03-17T07:20:22.102Z,65.80
2019-03-17T07:22:48.907Z,64.55
2019-03-17T07:25:15.791Z,64.23
2019-03-17T07:27:42.588Z,63.87
2019-03-17T07:30:14.506Z,64.51
2019-03-17T07:32:41.376Z,64.59
2019-03-17T07:35:08.463Z,64.96
2019-03-17T07:37:35.317Z,65.07
2019-03-17T07:40:07.193Z,65.40
2019-03-17T07:42:34.476Z,65.71
2019-03-17T07:45:01.252Z,65.71
2019-03-17T07:47:28.150Z,65.96
2019-03-17T07:49:54.930Z,65.79
2019-03-17T07:52:22.024Z,65.42
2019-03-17T07:54:49.215Z,64.75
2019-03-17T07:57:16.106Z,64.13
2019-03-17T07:59:43.526Z,63.83
2019-03-17T08:02:10.669Z,63.67
2019-03-17T08:04:42.425Z,62.89
2019-03-17T08:07:06.137Z,61.74
2019-03-17T08:09:32.891Z,60.79
2019-03-17T08:12:00.019Z,59.80
2019-03-17T08:14:27.215Z,58.06
2019-03-17T08:16:53.972Z,54.97
2019-03-17T08:19:20.869Z,52.09
2019-03-17T08:21:48.191Z,50.10
2019-03-17T08:24:15.127Z,47.33
2019-03-17T08:26:42.116Z,47.69
2019-03-17T08:29:09.485Z,46.03
2019-03-17T08:31:36.312Z,46.14
2019-03-17T08:34:03.302Z,45.36
2019-03-17T08:36:30.060Z,44.64
2019-03-17T08:38:56.900Z,44.05
2019-03-17T08:41:23.728Z,43.33
2019-03-17T08:43:54.493Z,42.76
2019-03-17T08:46:20.953Z,42.85
2019-03-17T08:48:47.843Z,42.90
2019-03-17T08:51:14.683Z,42.36
2019-03-17T08:53:41.715Z,42.65
2019-03-17T08:56:08.456Z,42.05
2019-03-17T08:58:35.642Z,41.52
2019-03-17T09:01:02.770Z,41.16
2019-03-17T09:03:29.682Z,40.63
2019-03-17T09:05:56.587Z,40.58
2019-03-17T09:08:34.158Z,40.17
2019-03-17T09:10:52.859Z,39.94
2019-03-17T09:13:19.907Z,39.90
2019-03-17T09:15:47.508Z,39.53
2019-03-17T09:18:14.788Z,39.28
2019-03-17T09:20:41.895Z,38.72
2019-03-17T09:23:08.714Z,38.66
2019-03-17T09:25:35.583Z,38.22
2019-03-17T09:28:02.602Z,37.06
2019-03-17T09:30:29.476Z,37.23
2019-03-17T09:32:56.623Z,37.32
2019-03-17T09:35:23.992Z,36.96
2019-03-17T09:37:50.763Z,35.85
2019-03-17T09:40:19.188Z,35.89
2019-03-17T09:42:45.958Z,36.13
2019-03-17T09:45:14.709Z,36.15
2019-03-17T09:47:44.945Z,35.86
2019-03-17T09:50:14.114Z,35.91
2019-03-17T09:52:40.927Z,35.71
2019-03-17T09:55:08.670Z,35.70
2019-03-17T09:57:35.936Z,35.48
2019-03-17T10:00:13.480Z,35.10
2019-03-17T10:02:40.697Z,35.05
2019-03-17T10:05:09.106Z,34.55
2019-03-17T10:07:36.133Z,34.59
2019-03-17T10:10:12.731Z,34.08
2019-03-17T10:12:40.068Z,32.67
2019-03-17T10:15:11.397Z,35.19
2019-03-17T10:17:38.438Z,35.51
2019-03-17T10:20:12.880Z,36.31
2019-03-17T10:22:40.029Z,36.24
2019-03-17T10:25:09.617Z,37.02
2019-03-17T10:27:36.524Z,36.15
2019-03-17T10:30:14.760Z,35.41
2019-03-17T10:32:41.876Z,34.96
2019-03-17T10:35:08.925Z,34.50
2019-03-17T10:37:36.207Z,34.00
2019-03-17T10:40:13.527Z,34.35
2019-03-17T10:42:40.426Z,34.03
2019-03-17T10:45:09.924Z,34.42
2019-03-17T10:47:37.319Z,34.36
2019-03-17T10:50:13.031Z,33.71
2019-03-17T10:52:40.180Z,33.02
2019-03-17T10:55:08.963Z,32.88
2019-03-17T10:57:36.456Z,33.54
2019-03-17T11:00:21.379Z,33.33
2019-03-17T11:02:48.410Z,32.23
2019-03-17T11:05:15.728Z,34.27
2019-03-17T11:07:43.147Z,34.97
2019-03-17T11:10:13.542Z,35.06
2019-03-17T11:12:40.549Z,35.22
2019-03-17T11:15:19.001Z,33.16
2019-03-17T11:17:45.855Z,33.86
2019-03-17T11:20:13.746Z,33.55
2019-03-17T11:22:41.047Z,33.80
2019-03-17T11:25:15.291Z,34.70
2019-03-17T11:27:43.822Z,35.54
2019-03-17T11:30:16.240Z,36.21
2019-03-17T11:32:43.095Z,36.71
2019-03-17T11:35:10.268Z,38.29
2019-03-17T11:37:37.348Z,39.07
2019-03-17T11:40:12.956Z,39.42
2019-03-17T11:42:39.777Z,39.98
2019-03-17T11:45:14.336Z,39.86
2019-03-17T11:47:42.615Z,40.35
2019-03-17T11:50:15.856Z,40.93
2019-03-17T11:52:42.964Z,41.40
2019-03-17T11:55:11.024Z,41.77
2019-03-17T11:57:38.434Z,42.09
2019-03-17T12:00:16.038Z,42.34
2019-03-17T12:02:42.854Z,42.60
2019-03-17T12:05:10.215Z,43.07
2019-03-17T12:07:37.083Z,43.88
2019-03-17T12:10:16.889Z,44.03
2019-03-17T12:12:43.986Z,44.38
2019-03-17T12:15:26.781Z,44.88
2019-03-17T12:17:54.035Z,45.04
2019-03-17T12:20:21.114Z,45.18
2019-03-17T12:22:49.889Z,44.48
2019-03-17T12:25:18.059Z,44.85
2019-03-17T12:27:45.117Z,44.72
2019-03-17T12:30:20.481Z,45.43
2019-03-17T12:32:48.872Z,46.25
2019-03-17T12:35:16.254Z,47.06
2019-03-17T12:37:45.329Z,47.97
2019-03-17T12:40:12.547Z,48.42
2019-03-17T12:42:39.620Z,48.53
2019-03-17T12:45:08.811Z,49.01
2019-03-17T12:47:37.387Z,49.35
2019-03-17T12:50:12.757Z,49.89
2019-03-17T12:52:40.214Z,50.39
2019-03-17T12:55:07.857Z,51.80
2019-03-17T12:57:34.815Z,53.72
2019-03-17T13:00:10.463Z,54.49
2019-03-17T13:02:40.279Z,57.16
2019-03-17T13:05:08.533Z,59.59
2019-03-17T13:07:35.547Z,60.58
2019-03-17T13:10:15.873Z,61.54
2019-03-17T13:12:41.419Z,63.06
2019-03-17T13:15:10.978Z,65.04
2019-03-17T13:17:37.738Z,66.13
2019-03-17T13:20:15.766Z,65.69
2019-03-17T13:22:43.193Z,65.94
2019-03-17T13:25:11.375Z,67.58
2019-03-17T13:27:38.511Z,67.09
2019-03-17T13:30:13.570Z,67.38
2019-03-17T13:32:40.351Z,67.43
2019-03-17T13:35:09.174Z,67.36
2019-03-17T13:37:36.302Z,67.46
2019-03-17T13:40:28.714Z,66.70
2019-03-17T13:42:48.164Z,66.33
2019-03-17T13:45:15.612Z,66.49
2019-03-17T13:47:42.590Z,66.91
2019-03-17T13:50:16.219Z,66.62
2019-03-17T13:52:43.252Z,67.33
2019-03-17T13:55:10.236Z,70.17
2019-03-17T13:57:38.521Z,67.00
2019-03-17T14:00:10.536Z,67.08
2019-03-17T14:02:37.709Z,66.42
2019-03-17T14:05:04.877Z,67.50
2019-03-17T14:07:31.778Z,67.04
2019-03-17T14:09:58.737Z,66.81
2019-03-17T14:12:26.072Z,66.76
2019-03-17T14:14:52.956Z,67.59
2019-03-17T14:17:20.068Z,68.04
2019-03-17T14:19:47.229Z,69.25
2019-03-17T14:22:17.131Z,68.82
2019-03-17T14:24:43.944Z,69.07
2019-03-17T14:27:10.800Z,68.82
2019-03-17T14:29:37.906Z,68.48
2019-03-17T14:32:05.029Z,68.85
2019-03-17T14:34:32.219Z,68.88
2019-03-17T14:36:59.214Z,69.46
2019-03-17T14:39:26.387Z,68.99
2019-03-17T14:41:53.296Z,69.75
2019-03-17T14:44:20.221Z,69.00
2019-03-17T14:46:47.360Z,69.31
2019-03-17T14:49:14.119Z,69.30
2019-03-17T14:51:40.868Z,68.31
2019-03-17T14:54:07.838Z,68.80
2019-03-17T14:56:34.744Z,68.60
2019-03-17T14:59:03.786Z,68.73
2019-03-17T15:01:30.684Z,67.95
2019-03-17T15:03:58.078Z,67.73
2019-03-17T15:06:25.195Z,68.13
2019-03-17T15:08:51.996Z,67.49
2019-03-17T15:11:18.799Z,67.81
2019-03-17T15:13:46.168Z,67.82
2019-03-17T15:16:13.183Z,67.99
2019-03-17T15:18:40.253Z,68.10
2019-03-17T15:21:07.523Z,68.16
2019-03-17T15:23:34.530Z,68.26
2019-03-17T15:26:01.296Z,67.29
2019-03-17T15:28:28.889Z,67.05
2019-03-17T15:31:10.275Z,66.57
2019-03-17T15:33:24.601Z,66.99
2019-03-17T15:35:51.359Z,66.51
2019-03-17T15:38:18.219Z,66.74
2019-03-17T15:40:44.973Z,66.68
2019-03-17T15:43:11.837Z,66.49
2019-03-17T15:45:39.100Z,66.63
2019-03-17T15:48:05.993Z,67.44
2019-03-17T15:50:33.038Z,66.75
2019-03-17T15:53:00.322Z,66.51
2019-03-17T15:55:30.213Z,66.45
2019-03-17T15:57:57.087Z,66.30
2019-03-17T16:00:26.626Z,66.63
2019-03-17T16:02:53.998Z,66.34
2019-03-17T16:05:22.031Z,66.02
2019-03-17T16:07:48.997Z,65.86
2019-03-17T16:10:21.062Z,65.86
2019-03-17T16:12:51.795Z,66.52
2019-03-17T16:15:18.897Z,66.34
2019-03-17T16:17:46.363Z,66.40
2019-03-17T16:20:22.856Z,66.92
2019-03-17T16:22:49.729Z,67.14
2019-03-17T16:25:30.155Z,67.01
2019-03-17T16:27:57.200Z,67.11
2019-03-17T16:30:29.319Z,67.00
2019-03-17T16:32:56.315Z,67.25
2019-03-17T16:35:25.839Z,67.28
2019-03-17T16:37:55.820Z,66.78
2019-03-17T16:40:28.549Z,66.95
2019-03-17T16:42:55.534Z,67.24
2019-03-17T16:45:22.584Z,67.59
2019-03-17T16:47:50.030Z,68.17
2019-03-17T16:50:20.711Z,68.98
2019-03-17T16:52:47.651Z,68.63
2019-03-17T16:55:15.892Z,68.64
2019-03-17T16:57:43.040Z,68.77
2019-03-17T17:00:19.598Z,69.76
2019-03-17T17:02:47.935Z,70.55
2019-03-17T17:05:17.981Z,71.11
2019-03-17T17:07:45.533Z,71.41
2019-03-17T17:10:21.107Z,72.72
2019-03-17T17:12:48.201Z,72.35
2019-03-17T17:15:30.866Z,72.16
2019-03-17T17:17:58.297Z,72.83
2019-03-17T17:20:40.101Z,72.82
2019-03-17T17:23:06.877Z,72.37
2019-03-17T17:25:34.244Z,71.88
2019-03-17T17:28:02.096Z,71.40
2019-03-17T17:30:28.985Z,70.97
2019-03-17T17:32:56.209Z,70.85
2019-03-17T17:35:23.258Z,70.53
2019-03-17T17:37:50.050Z,70.41
2019-03-17T17:40:23.485Z,70.15
2019-03-17T17:42:50.571Z,70.20
2019-03-17T17:45:24.508Z,70.51
2019-03-17T17:47:51.636Z,70.01
2019-03-17T17:50:23.589Z,69.99
2019-03-17T17:52:50.746Z,69.58
2019-03-17T17:55:17.760Z,69.72
2019-03-17T17:57:45.002Z,69.20
2019-03-17T18:00:19.497Z,69.39
2019-03-17T18:02:46.467Z,69.14
2019-03-17T18:05:13.723Z,68.87
2019-03-17T18:07:40.806Z,68.88
2019-03-17T18:10:11.761Z,68.83
2019-03-17T18:12:38.552Z,68.87
2019-03-17T18:15:14.875Z,68.93
2019-03-17T18:17:42.123Z,69.70
2019-03-17T18:20:11.928Z,69.37
2019-03-17T18:22:38.864Z,69.37
2019-03-17T18:25:17.074Z,69.68
2019-03-17T18:27:44.016Z,69.25
2019-03-17T18:30:23.903Z,69.29
2019-03-17T18:32:53.225Z,69.87
2019-03-17T18:35:20.232Z,70.26
2019-03-17T18:37:51.225Z,69.75
2019-03-17T18:40:24.598Z,69.73
2019-03-17T18:42:51.887Z,69.41
2019-03-17T18:45:29.668Z,69.58
2019-03-17T18:47:58.974Z,68.87
2019-03-17T18:50:25.818Z,68.71
2019-03-17T18:52:52.801Z,68.03
2019-03-17T18:55:19.610Z,68.10
2019-03-17T18:57:46.577Z,68.24
2019-03-17T19:00:21.566Z,68.01
2019-03-17T19:02:48.657Z,67.19
2019-03-17T19:05:19.633Z,67.29
2019-03-17T19:07:45.640Z,66.89
2019-03-17T19:10:18.741Z,66.61
2019-03-17T19:12:46.404Z,66.07
2019-03-17T19:15:19.881Z,65.85
2019-03-17T19:17:50.371Z,65.99
2019-03-17T19:20:19.314Z,65.99
2019-03-17T19:22:46.372Z,65.95
2019-03-17T19:25:17.919Z,65.87
2019-03-17T19:27:45.311Z,65.79
2019-03-17T19:30:16.238Z,65.92
2019-03-17T19:32:44.229Z,66.05
2019-03-17T19:35:11.354Z,66.26
2019-03-17T19:37:41.809Z,65.97
2019-03-17T19:40:16.104Z,66.13
2019-03-17T19:42:44.073Z,65.81
2019-03-17T19:45:11.555Z,65.78
2019-03-17T19:47:39.169Z,66.14
2019-03-17T19:50:15.183Z,66.08
2019-03-17T19:52:42.290Z,66.06
2019-03-17T19:55:10.585Z,66.17
2019-03-17T19:57:37.475Z,66.34
2019-03-17T20:00:19.278Z,66.61
2019-03-17T20:02:47.762Z,66.55
2019-03-17T20:05:15.229Z,66.49
2019-03-17T20:07:42.060Z,66.28
2019-03-17T20:10:28.379Z,66.23
2019-03-17T20:12:56.373Z,66.13
2019-03-17T20:15:23.555Z,66.19
2019-03-17T20:17:50.311Z,65.94
2019-03-17T20:20:17.315Z,65.71
2019-03-17T20:22:44.167Z,65.29
2019-03-17T20:25:11.515Z,64.79
2019-03-17T20:27:38.399Z,64.07
2019-03-17T20:30:16.324Z,64.12
2019-03-17T20:32:43.630Z,63.57
2019-03-17T20:35:12.032Z,63.37
2019-03-17T20:37:38.916Z,62.79
2019-03-17T20:40:10.458Z,63.01
2019-03-17T20:42:37.319Z,62.89
2019-03-17T20:45:07.467Z,62.57
2019-03-17T20:47:34.379Z,62.49
2019-03-17T20:50:01.877Z,62.11
2019-03-17T20:52:29.096Z,62.69
2019-03-17T20:54:56.240Z,62.49
2019-03-17T20:57:22.992Z,62.25
2019-03-17T20:59:50.485Z,62.58
2019-03-17T21:02:17.596Z,62.34
2019-03-17T21:04:44.396Z,62.23
2019-03-17T21:07:12.884Z,61.84
2019-03-17T21:09:39.868Z,62.29
2019-03-17T21:12:06.942Z,62.53
2019-03-17T21:14:33.711Z,62.47
2019-03-17T21:17:00.652Z,62.38
2019-03-17T21:19:28.092Z,62.24
2019-03-17T21:21:55.083Z,62.45
2019-03-17T21:24:21.840Z,62.13
2019-03-17T21:26:49.101Z,62.34
2019-03-17T21:29:16.074Z,62.29
2019-03-17T21:31:43.373Z,62.63
2019-03-17T21:34:10.284Z,62.45
2019-03-17T21:36:38.826Z,62.45
2019-03-17T21:39:06.448Z,62.15
2019-03-17T21:41:34.107Z,62.16
2019-03-17T21:44:00.927Z,62.37
2019-03-17T21:46:28.123Z,62.43
2019-03-17T21:48:54.875Z,62.88
2019-03-17T21:51:21.648Z,62.88
2019-03-17T21:53:48.445Z,62.72
2019-03-17T21:56:15.596Z,62.89
2019-03-17T21:58:42.399Z,62.94
2019-03-17T22:01:09.159Z,62.83
2019-03-17T22:03:35.937Z,62.66
2019-03-17T22:06:03.359Z,62.68
2019-03-17T22:08:31.434Z,63.00
2019-03-17T22:10:58.371Z,62.88
2019-03-17T22:13:25.258Z,62.59
2019-03-17T22:15:52.001Z,62.54
2019-03-17T22:18:18.766Z,61.49
2019-03-17T22:20:45.501Z,62.01
2019-03-17T22:23:12.355Z,61.80
2019-03-17T22:25:39.219Z,61.57
2019-03-17T22:28:08.505Z,61.33
2019-03-17T22:30:35.481Z,61.04
2019-03-17T22:33:02.427Z,61.04
2019-03-17T22:35:29.493Z,60.89
2019-03-17T22:37:56.786Z,61.14
2019-03-17T22:40:23.620Z,60.98
2019-03-17T22:42:50.375Z,61.11
2019-03-17T22:45:17.655Z,61.30
2019-03-17T22:47:44.827Z,61.20
2019-03-17T22:50:15.135Z,61.46
2019-03-17T22:52:42.438Z,61.17
2019-03-17T22:55:10.394Z,61.19
2019-03-17T22:57:37.160Z,61.35
2019-03-17T23:00:09.778Z,60.81
2019-03-17T23:02:36.877Z,60.94
2019-03-17T23:05:06.787Z,60.63
2019-03-17T23:07:33.648Z,60.80
2019-03-17T23:10:00.569Z,60.66
2019-03-17T23:12:27.384Z,60.64
2019-03-17T23:14:54.153Z,60.43
2019-03-17T23:17:20.905Z,60.50
2019-03-17T23:19:48.075Z,60.68
2019-03-17T23:22:14.838Z,60.55
2019-03-17T23:24:41.747Z,60.64
2019-03-17T23:27:08.745Z,60.60
2019-03-17T23:29:35.668Z,60.66
2019-03-17T23:32:03.587Z,60.97
2019-03-17T23:34:30.846Z,61.27
2019-03-17T23:36:57.760Z,60.70
2019-03-17T23:39:24.845Z,60.44
2019-03-17T23:41:51.936Z,60.66
2019-03-17T23:44:19.042Z,61.09
2019-03-17T23:46:45.981Z,61.35
2019-03-17T23:49:12.843Z,61.28
2019-03-17T23:51:39.634Z,61.31
2019-03-17T23:54:06.424Z,61.48
2019-03-17T23:56:33.589Z,61.24
2019-03-17T23:59:00.355Z,61.58
